Time,TemperatureF,DewpointF,PressureIn,WindDirection,WindDirectionDegrees,WindSpeedMPH,WindSpeedGustMPH,Humidity,HourlyPrecipIn,Conditions,Clouds,dailyrainin,SoftwareType,DateUTC
2013-11-13 00:03:00,35.1,18.0,30.47,NW,313,0.0,0.0,50,0.00,,,0.00,weatherlink.com 1.10,2013-11-13 07:03:00,
2013-11-13 00:18:00,35.2,18.0,30.46,NW,322,0.0,1.0,50,0.00,,,0.00,weatherlink.com 1.10,2013-11-13 07:18:00,
2013-11-13 00:33:00,34.9,18.0,30.46,West,260,0.0,1.0,50,0.00,,,0.00,weatherlink.com 1.10,2013-11-13 07:33:00,
2013-11-13 00:48:00,34.9,18.0,30.46,West,260,0.0,1.0,51,0.00,,,0.00,weatherlink.com 1.10,2013-11-13 07:48:00,
2013-11-13 01:03:00,35.0,18.0,30.45,West,260,0.0,1.0,51,0.00,,,0.00,weatherlink.com 1.10,2013-11-13 08:03:00,
2013-11-13 01:18:00,34.9,18.0,30.45,South,173,0.0,0.0,51,0.00,,,0.00,weatherlink.com 1.10,2013-11-13 08:18:00,
2013-11-13 01:33:00,34.9,19.0,30.45,SW,214,0.0,1.0,52,0.00,,,0.00,weatherlink.com 1.10,2013-11-13 08:33:00,
2013-11-13 01:48:00,34.6,19.0,30.45,SW,231,0.0,1.0,53,0.00,,,0.00,weatherlink.com 1.10,2013-11-13 08:48:00,
2013-11-13 02:03:00,34.5,19.0,30.45,NW,304,0.0,0.0,53,0.00,,,0.00,weatherlink.com 1.10,2013-11-13 09:03:00,
2013-11-13 02:18:00,34.3,19.0,30.44,NW,304,0.0,1.0,54,0.00,,,0.00,weatherlink.com 1.10,2013-11-13 09:18:00,
2013-11-13 02:33:00,34.0,19.0,30.43,WNW,293,0.0,1.0,55,0.00,,,0.00,weatherlink.com 1.10,2013-11-13 09:33:00,
2013-11-13 02:48:00,34.2,19.0,30.43,WNW,293,0.0,1.0,55,0.00,,,0.00,weatherlink.com 1.10,2013-11-13 09:48:00,
2013-11-13 03:03:00,34.4,20.0,30.43,WSW,245,0.0,1.0,55,0.00,,,0.00,weatherlink.com 1.10,2013-11-13 10:03:00,
2013-11-13 03:18:00,34.4,20.0,30.43,WSW,245,0.0,1.0,55,0.00,,,0.00,weatherlink.com 1.10,2013-11-13 10:18:00,
2013-11-13 03:33:00,34.3,20.0,30.43,WSW,245,0.0,1.0,56,0.00,,,0.00,weatherlink.com 1.10,2013-11-13 10:33:00,
2013-11-13 03:48:00,34.5,20.0,30.43,WSW,253,1.0,1.0,56,0.00,,,0.00,weatherlink.com 1.10,2013-11-13 10:48:00,
2013-11-13 04:03:00,35.0,20.0,30.42,NW,321,0.0,2.0,55,0.00,,,0.00,weatherlink.com 1.10,2013-11-13 11:03:00,
2013-11-13 04:18:00,34.9,20.0,30.42,SW,233,1.0,1.0,55,0.00,,,0.00,weatherlink.com 1.10,2013-11-13 11:18:00,
2013-11-13 04:34:00,34.6,20.0,30.41,South,189,0.0,1.0,56,0.00,,,0.00,weatherlink.com 1.10,2013-11-13 11:34:00,
2013-11-13 04:49:00,33.4,20.0,30.41,WNW,285,0.0,0.0,58,0.00,,,0.00,weatherlink.com 1.10,2013-11-13 11:49:00,
2013-11-13 05:04:00,32.7,20.0,30.41,WSW,248,0.0,2.0,60,0.00,,,0.00,weatherlink.com 1.10,2013-11-13 12:04:00,
2013-11-13 05:19:00,32.2,20.0,30.41,NW,326,0.0,2.0,62,0.00,,,0.00,weatherlink.com 1.10,2013-11-13 12:19:00,
2013-11-13 05:34:00,30.9,20.0,30.41,WSW,241,0.0,0.0,64,0.00,,,0.00,weatherlink.com 1.10,2013-11-13 12:34:00,
2013-11-13 05:49:00,30.5,20.0,30.41,SW,234,0.0,1.0,65,0.00,,,0.00,weatherlink.com 1.10,2013-11-13 12:49:00,
2013-11-13 06:04:00,29.8,20.0,30.41,North,359,0.0,1.0,66,0.00,,,0.00,weatherlink.com 1.10,2013-11-13 13:04:00,
2013-11-13 06:19:00,29.2,20.0,30.40,NW,321,0.0,1.0,68,0.00,,,0.00,weatherlink.com 1.10,2013-11-13 13:19:00,
2013-11-13 06:34:00,28.6,20.0,30.40,NW,321,0.0,0.0,69,0.00,,,0.00,weatherlink.com 1.10,2013-11-13 13:34:00,
2013-11-13 06:49:00,28.3,20.0,30.40,NW,319,0.0,0.0,70,0.00,,,0.00,weatherlink.com 1.10,2013-11-13 13:49:00,
2013-11-13 07:04:00,28.2,20.0,30.41,West,268,0.0,1.0,70,0.00,,,0.00,weatherlink.com 1.10,2013-11-13 14:04:00,
2013-11-13 07:19:00,28.3,20.0,30.40,North,356,0.0,1.0,71,0.00,,,0.00,weatherlink.com 1.10,2013-11-13 14:19:00,
2013-11-13 07:34:00,29.1,20.0,30.41,WSW,241,0.0,2.0,69,0.00,,,0.00,weatherlink.com 1.10,2013-11-13 14:34:00,
2013-11-13 07:49:00,30.5,21.0,30.41,SW,228,0.0,1.0,67,0.00,,,0.00,weatherlink.com 1.10,2013-11-13 14:49:00,
2013-11-13 08:04:00,32.7,22.0,30.41,SW,228,0.0,1.0,64,0.00,,,0.00,weatherlink.com 1.10,2013-11-13 15:04:00,
2013-11-13 08:19:00,35.7,22.0,30.41,West,265,0.0,1.0,59,0.00,,,0.00,weatherlink.com 1.10,2013-11-13 15:19:00,
2013-11-13 08:34:00,40.4,24.0,30.41,West,265,0.0,0.0,52,0.00,,,0.00,weatherlink.com 1.10,2013-11-13 15:34:00,
2013-11-13 08:49:00,45.8,27.0,30.41,West,266,1.0,1.0,48,0.00,,,0.00,weatherlink.com 1.10,2013-11-13 15:49:00,
2013-11-13 09:04:00,49.2,27.0,30.41,NE,37,0.0,1.0,42,0.00,,,0.00,weatherlink.com 1.10,2013-11-13 16:04:00,
2013-11-13 09:19:00,49.6,25.0,30.41,NE,46,2.0,5.0,39,0.00,,,0.00,weatherlink.com 1.10,2013-11-13 16:19:00,
2013-11-13 09:34:00,50.7,26.0,30.40,East,89,0.0,3.0,39,0.00,,,0.00,weatherlink.com 1.10,2013-11-13 16:34:00,
2013-11-13 09:49:00,51.3,28.0,30.39,NE,52,2.0,6.0,40,0.00,,,0.00,weatherlink.com 1.10,2013-11-13 16:49:00,
2013-11-13 10:05:00,52.4,27.0,30.39,ENE,63,2.0,5.0,38,0.00,,,0.00,weatherlink.com 1.10,2013-11-13 17:05:00,
2013-11-13 10:20:00,53.2,28.0,30.39,NE,46,5.0,6.0,38,0.00,,,0.00,weatherlink.com 1.10,2013-11-13 17:20:00,
2013-11-13 10:35:00,55.8,28.0,30.38,NE,46,3.0,5.0,35,0.00,,,0.00,weatherlink.com 1.10,2013-11-13 17:35:00,
2013-11-13 10:50:00,55.7,28.0,30.38,SE,130,0.0,5.0,35,0.00,,,0.00,weatherlink.com 1.10,2013-11-13 17:50:00,
2013-11-13 11:05:00,56.8,29.0,30.37,ESE,117,2.0,6.0,34,0.00,,,0.00,weatherlink.com 1.10,2013-11-13 18:05:00,
2013-11-13 11:20:00,58.2,28.0,30.36,SSE,150,0.0,6.0,32,0.00,,,0.00,weatherlink.com 1.10,2013-11-13 18:20:00,
2013-11-13 11:35:00,58.1,28.0,30.36,SE,131,3.0,5.0,32,0.00,,,0.00,weatherlink.com 1.10,2013-11-13 18:35:00,
2013-11-13 11:50:00,58.0,28.0,30.35,ESE,120,2.0,8.0,32,0.00,,,0.00,weatherlink.com 1.10,2013-11-13 18:50:00,
2013-11-13 12:05:00,58.8,28.0,30.34,ENE,65,4.0,8.0,31,0.00,,,0.00,weatherlink.com 1.10,2013-11-13 19:05:00,
2013-11-13 12:20:00,59.1,28.0,30.33,SE,131,1.0,7.0,31,0.00,,,0.00,weatherlink.com 1.10,2013-11-13 19:20:00,
2013-11-13 12:35:00,60.2,28.0,30.32,ESE,114,0.0,6.0,30,0.00,,,0.00,weatherlink.com 1.10,2013-11-13 19:35:00,
2013-11-13 12:50:00,60.1,28.0,30.30,NE,45,4.0,8.0,30,0.00,,,0.00,weatherlink.com 1.10,2013-11-13 19:50:00,
2013-11-13 13:05:00,59.4,28.0,30.29,NE,54,2.0,13.0,30,0.00,,,0.00,weatherlink.com 1.10,2013-11-13 20:05:00,
2013-11-13 13:20:00,59.2,28.0,30.29,NE,51,5.0,10.0,31,0.00,,,0.00,weatherlink.com 1.10,2013-11-13 20:20:00,
2013-11-13 13:35:00,58.8,28.0,30.29,ENE,60,10.0,14.0,31,0.00,,,0.00,weatherlink.com 1.10,2013-11-13 20:35:00,
2013-11-13 13:50:00,58.8,29.0,30.28,East,84,9.0,11.0,32,0.00,,,0.00,weatherlink.com 1.10,2013-11-13 20:50:00,
2013-11-13 14:05:00,58.3,29.0,30.28,ENE,59,8.0,13.0,33,0.00,,,0.00,weatherlink.com 1.10,2013-11-13 21:05:00,
2013-11-13 14:20:00,59.1,30.0,30.28,NE,56,6.0,10.0,33,0.00,,,0.00,weatherlink.com 1.10,2013-11-13 21:20:00,
2013-11-13 14:35:00,59.8,29.0,30.28,East,89,3.0,10.0,31,0.00,,,0.00,weatherlink.com 1.10,2013-11-13 21:35:00,
2013-11-13 14:50:00,59.5,29.0,30.28,NE,39,1.0,12.0,32,0.00,,,0.00,weatherlink.com 1.10,2013-11-13 21:50:00,
2013-11-13 15:05:00,60.1,30.0,30.28,ENE,70,8.0,8.0,32,0.00,,,0.00,weatherlink.com 1.10,2013-11-13 22:05:00,
2013-11-13 15:20:00,57.5,29.0,30.27,ENE,59,7.0,8.0,34,0.00,,,0.00,weatherlink.com 1.10,2013-11-13 22:20:00,
2013-11-13 15:35:00,56.5,30.0,30.27,NE,46,8.0,11.0,36,0.00,,,0.00,weatherlink.com 1.10,2013-11-13 22:35:00,
2013-11-13 15:50:00,56.2,30.0,30.28,SE,126,3.0,8.0,37,0.00,,,0.00,weatherlink.com 1.10,2013-11-13 22:50:00,
2013-11-13 16:05:00,56.7,30.0,30.27,ENE,68,3.0,8.0,37,0.00,,,0.00,weatherlink.com 1.10,2013-11-13 23:05:00,
2013-11-13 16:20:00,55.4,31.0,30.27,East,90,2.0,8.0,39,0.00,,,0.00,weatherlink.com 1.10,2013-11-13 23:20:00,
2013-11-13 16:35:00,54.9,31.0,30.27,ENE,63,6.0,8.0,40,0.00,,,0.00,weatherlink.com 1.10,2013-11-13 23:35:00,
2013-11-13 16:50:00,54.9,31.0,30.26,NE,46,3.0,8.0,41,0.00,,,0.00,weatherlink.com 1.10,2013-11-13 23:50:00,
2013-11-13 17:05:00,54.3,31.0,30.26,SE,129,3.0,6.0,42,0.00,,,0.00,weatherlink.com 1.10,2013-11-14 00:05:00,
2013-11-13 17:20:00,53.3,32.0,30.26,ENE,57,0.0,5.0,44,0.00,,,0.00,weatherlink.com 1.10,2013-11-14 00:20:00,
2013-11-13 17:35:00,52.5,32.0,30.27,ENE,66,1.0,2.0,46,0.00,,,0.00,weatherlink.com 1.10,2013-11-14 00:35:00,
2013-11-13 17:50:00,50.0,31.0,30.27,ENE,66,0.0,1.0,48,0.00,,,0.00,weatherlink.com 1.10,2013-11-14 00:50:00,
2013-11-13 18:05:00,47.2,30.0,30.27,NNW,342,1.0,1.0,52,0.00,,,0.00,weatherlink.com 1.10,2013-11-14 01:05:00,
2013-11-13 18:20:00,45.0,30.0,30.27,NNW,340,1.0,2.0,56,0.00,,,0.00,weatherlink.com 1.10,2013-11-14 01:20:00,
2013-11-13 18:35:00,43.3,30.0,30.27,NNW,339,0.0,2.0,59,0.00,,,0.00,weatherlink.com 1.10,2013-11-14 01:35:00,
2013-11-13 18:50:00,42.0,29.0,30.27,North,351,0.0,2.0,61,0.00,,,0.00,weatherlink.com 1.10,2013-11-14 01:50:00,
2013-11-13 19:05:00,40.8,29.0,30.26,NNW,343,1.0,1.0,64,0.00,,,0.00,weatherlink.com 1.10,2013-11-14 02:05:00,
2013-11-13 19:20:00,39.7,29.0,30.26,North,351,0.0,1.0,66,0.00,,,0.00,weatherlink.com 1.10,2013-11-14 02:20:00,
2013-11-13 19:35:00,38.8,29.0,30.26,NNW,330,0.0,2.0,67,0.00,,,0.00,weatherlink.com 1.10,2013-11-14 02:35:00,
2013-11-13 19:50:00,38.1,29.0,30.27,NW,310,1.0,2.0,69,0.00,,,0.00,weatherlink.com 1.10,2013-11-14 02:50:00,
2013-11-13 20:05:00,37.4,28.0,30.26,NNW,331,0.0,1.0,69,0.00,,,0.00,weatherlink.com 1.10,2013-11-14 03:05:00,
2013-11-13 20:20:00,36.7,28.0,30.26,NW,311,0.0,1.0,71,0.00,,,0.00,weatherlink.com 1.10,2013-11-14 03:20:00,
2013-11-13 20:35:00,36.3,28.0,30.27,West,264,0.0,1.0,72,0.00,,,0.00,weatherlink.com 1.10,2013-11-14 03:35:00,
2013-11-13 20:51:00,36.4,28.0,30.26,West,271,0.0,1.0,72,0.00,,,0.00,weatherlink.com 1.10,2013-11-14 03:51:00,
2013-11-13 21:06:00,36.1,28.0,30.26,West,279,0.0,1.0,72,0.00,,,0.00,weatherlink.com 1.10,2013-11-14 04:06:00,
2013-11-13 21:21:00,36.2,28.0,30.26,West,270,0.0,1.0,72,0.00,,,0.00,weatherlink.com 1.10,2013-11-14 04:21:00,
2013-11-13 21:37:00,36.3,28.0,30.26,West,264,0.0,1.0,72,0.00,,,0.00,weatherlink.com 1.10,2013-11-14 04:37:00,
2013-11-13 21:51:00,36.8,28.0,30.26,SW,214,0.0,1.0,71,0.00,,,0.00,weatherlink.com 1.10,2013-11-14 04:51:00,
2013-11-13 22:06:00,36.9,28.0,30.26,South,172,0.0,0.0,71,0.00,,,0.00,weatherlink.com 1.10,2013-11-14 05:06:00,
2013-11-13 22:21:00,36.6,28.0,30.26,South,171,0.0,0.0,72,0.00,,,0.00,weatherlink.com 1.10,2013-11-14 05:21:00,
2013-11-13 22:36:00,35.9,28.0,30.25,South,172,0.0,1.0,73,0.00,,,0.00,weatherlink.com 1.10,2013-11-14 05:36:00,
2013-11-13 22:51:00,35.4,28.0,30.25,South,179,0.0,0.0,74,0.00,,,0.00,weatherlink.com 1.10,2013-11-14 05:51:00,
2013-11-13 23:06:00,34.9,27.0,30.25,NNW,332,0.0,1.0,74,0.00,,,0.00,weatherlink.com 1.10,2013-11-14 06:06:00,
2013-11-13 23:21:00,34.0,28.0,30.25,NNW,332,0.0,1.0,77,0.00,,,0.00,weatherlink.com 1.10,2013-11-14 06:21:00,
2013-11-13 23:36:00,33.4,27.0,30.24,NW,311,0.0,1.0,77,0.00,,,0.00,weatherlink.com 1.10,2013-11-14 06:36:00,
2013-11-13 23:51:00,32.7,27.0,30.24,WNW,303,0.0,1.0,78,0.00,,,0.00,weatherlink.com 1.10,2013-11-14 06:51:00,